CheckWX is a tool to help pilots better visualize weather data.  It is not intended as a substitute for an official pre-flight weather briefing.

20:35:30 UTC

K0CO METAR
Empire
Empire, Colorado, USA
Current

12 mins ago

K0CO 182024Z AUTO 18012G21KT SCT032 BKN038 OVC050 M16/M22 A2969 RMK AO2 PWINO
Observed
Feb-18 @ 20:24 UTC
Wind
  • 180° at 12 KTS
  • Gusting to 21 KTS
Visibility
Cloud Levels
  • Scattered at 3,200' AGL
  • Broken at 3,800' AGL
  • Overcast at 5,000' AGL
Temperature
-16°C / 3°F
Dewpoint
-22°C / -8°F
Humidity
60%
Altimeter
29.69" Hg
Pressure
1005.42 hPa
Previous

1 hour ago

K0CO 181924Z AUTO 19011G19KT SCT024 BKN029 BKN037 M16/M22 A2970 RMK AO2 PWINO
Observed
Feb-18 @ 19:24 UTC
Wind
  • 190° at 11 KTS
  • Gusting to 19 KTS
Visibility
Cloud Levels
  • Scattered at 2,400' AGL
  • Broken at 2,900' AGL
  • Broken at 3,700' AGL
Temperature
-16°C / 3°F
Dewpoint
-22°C / -8°F
Humidity
60%
Altimeter
29.7" Hg
Pressure
1005.72 hPa
Previous

1 hour ago

K0CO 181906Z AUTO 20006KT SCT029 M16/M22 A2971 RMK AO2 PWINO
Observed
Feb-18 @ 19:06 UTC
Wind
  • 200° at 6 KTS
Visibility
Cloud Levels
  • Scattered at 2,900' AGL
Temperature
-16°C / 3°F
Dewpoint
-22°C / -8°F
Humidity
60%
Altimeter
29.71" Hg
Pressure
1006.12 hPa